sensor_id;sensor_type;location;lat;lon;timestamp;temperature;humidity
68128;SHT30;54931;52.098;21.006;2022-12-13T00:01:55;-0.27;82.46
68128;SHT30;54931;52.098;21.006;2022-12-13T00:04:23;-0.30;82.59
68128;SHT30;54931;52.098;21.006;2022-12-13T00:06:53;-0.35;82.65
68128;SHT30;54931;52.098;21.006;2022-12-13T00:09:22;-0.38;82.94
68128;SHT30;54931;52.098;21.006;2022-12-13T00:11:50;-0.38;83.03
68128;SHT30;54931;52.098;21.006;2022-12-13T00:14:18;-0.36;83.36
68128;SHT30;54931;52.098;21.006;2022-12-13T00:16:46;-0.28;83.32
68128;SHT30;54931;52.098;21.006;2022-12-13T00:19:16;-0.23;83.32
68128;SHT30;54931;52.098;21.006;2022-12-13T00:21:45;-0.18;83.24
68128;SHT30;54931;52.098;21.006;2022-12-13T00:24:14;-0.11;83.11
68128;SHT30;54931;52.098;21.006;2022-12-13T00:26:42;-0.08;82.93
68128;SHT30;54931;52.098;21.006;2022-12-13T00:29:10;-0.09;82.62
68128;SHT30;54931;52.098;21.006;2022-12-13T00:31:38;-0.09;82.51
68128;SHT30;54931;52.098;21.006;2022-12-13T00:34:06;-0.12;82.46
68128;SHT30;54931;52.098;21.006;2022-12-13T00:36:33;-0.10;82.38
68128;SHT30;54931;52.098;21.006;2022-12-13T00:39:02;-0.09;82.27
68128;SHT30;54931;52.098;21.006;2022-12-13T00:41:31;-0.06;82.27
68128;SHT30;54931;52.098;21.006;2022-12-13T00:44:03;-0.05;82.23
68128;SHT30;54931;52.098;21.006;2022-12-13T00:46:31;-0.04;82.25
68128;SHT30;54931;52.098;21.006;2022-12-13T00:48:59;-0.03;82.18
68128;SHT30;54931;52.098;21.006;2022-12-13T00:51:28;-0.04;81.89
68128;SHT30;54931;52.098;21.006;2022-12-13T00:53:58;-0.03;81.70
68128;SHT30;54931;52.098;21.006;2022-12-13T00:56:28;-0.04;81.52
68128;SHT30;54931;52.098;21.006;2022-12-13T00:58:58;-0.04;81.37
68128;SHT30;54931;52.098;21.006;2022-12-13T01:01:28;-0.06;81.45
68128;SHT30;54931;52.098;21.006;2022-12-13T01:04:00;-0.07;81.51
68128;SHT30;54931;52.098;21.006;2022-12-13T01:06:37;-0.07;81.49
68128;SHT30;54931;52.098;21.006;2022-12-13T01:09:18;-0.07;81.47
68128;SHT30;54931;52.098;21.006;2022-12-13T01:11:50;-0.08;81.36
68128;SHT30;54931;52.098;21.006;2022-12-13T01:14:17;-0.10;81.25
68128;SHT30;54931;52.098;21.006;2022-12-13T01:16:45;-0.12;81.03
68128;SHT30;54931;52.098;21.006;2022-12-13T01:19:13;-0.13;81.00
68128;SHT30;54931;52.098;21.006;2022-12-13T01:21:41;-0.13;80.73
68128;SHT30;54931;52.098;21.006;2022-12-13T01:24:08;-0.13;80.62
68128;SHT30;54931;52.098;21.006;2022-12-13T01:26:36;-0.10;80.74
68128;SHT30;54931;52.098;21.006;2022-12-13T01:29:04;-0.13;80.82
68128;SHT30;54931;52.098;21.006;2022-12-13T01:31:32;-0.15;80.91
68128;SHT30;54931;52.098;21.006;2022-12-13T01:34:00;-0.17;81.04
68128;SHT30;54931;52.098;21.006;2022-12-13T01:36:36;-0.20;81.17
68128;SHT30;54931;52.098;21.006;2022-12-13T01:39:07;-0.25;81.20
68128;SHT30;54931;52.098;21.006;2022-12-13T01:41:36;-0.29;81.30
68128;SHT30;54931;52.098;21.006;2022-12-13T01:44:06;-0.33;81.44
68128;SHT30;54931;52.098;21.006;2022-12-13T01:47:13;-0.36;81.65
68128;SHT30;54931;52.098;21.006;2022-12-13T01:49:46;-0.41;81.69
68128;SHT30;54931;52.098;21.006;2022-12-13T01:52:15;-0.46;81.74
68128;SHT30;54931;52.098;21.006;2022-12-13T01:54:45;-0.50;81.83
68128;SHT30;54931;52.098;21.006;2022-12-13T01:57:18;-0.52;81.98
68128;SHT30;54931;52.098;21.006;2022-12-13T01:59:48;-0.52;82.13
68128;SHT30;54931;52.098;21.006;2022-12-13T02:02:18;-0.51;82.22
68128;SHT30;54931;52.098;21.006;2022-12-13T02:07:52;-0.46;82.22
68128;SHT30;54931;52.098;21.006;2022-12-13T02:10:23;-0.46;82.21
68128;SHT30;54931;52.098;21.006;2022-12-13T02:12:53;-0.42;82.17
68128;SHT30;54931;52.098;21.006;2022-12-13T02:15:21;-0.40;82.14
68128;SHT30;54931;52.098;21.006;2022-12-13T02:30:22;-0.26;81.67
68128;SHT30;54931;52.098;21.006;2022-12-13T02:37:05;-0.22;81.53
68128;SHT30;54931;52.098;21.006;2022-12-13T02:39:35;-0.15;81.04
68128;SHT30;54931;52.098;21.006;2022-12-13T02:42:12;-0.11;80.86
68128;SHT30;54931;52.098;21.006;2022-12-13T02:45:16;-0.12;80.61
68128;SHT30;54931;52.098;21.006;2022-12-13T02:47:54;-0.08;80.80
68128;SHT30;54931;52.098;21.006;2022-12-13T02:50:28;-0.07;80.70
68128;SHT30;54931;52.098;21.006;2022-12-13T02:52:59;-0.05;80.52
68128;SHT30;54931;52.098;21.006;2022-12-13T02:55:28;-0.04;80.69
68128;SHT30;54931;52.098;21.006;2022-12-13T02:57:58;-0.07;80.65
68128;SHT30;54931;52.098;21.006;2022-12-13T03:00:38;-0.07;80.76
68128;SHT30;54931;52.098;21.006;2022-12-13T03:12:05;-0.06;80.64
68128;SHT30;54931;52.098;21.006;2022-12-13T03:17:58;-0.09;80.84
68128;SHT30;54931;52.098;21.006;2022-12-13T03:20:51;-0.07;80.79
68128;SHT30;54931;52.098;21.006;2022-12-13T03:23:23;-0.06;80.73
68128;SHT30;54931;52.098;21.006;2022-12-13T03:25:55;-0.06;80.67
68128;SHT30;54931;52.098;21.006;2022-12-13T03:28:39;-0.06;80.72
68128;SHT30;54931;52.098;21.006;2022-12-13T03:31:08;-0.05;80.80
68128;SHT30;54931;52.098;21.006;2022-12-13T03:33:36;-0.06;80.77
68128;SHT30;54931;52.098;21.006;2022-12-13T03:36:04;-0.07;80.84
68128;SHT30;54931;52.098;21.006;2022-12-13T03:38:33;-0.08;80.86
68128;SHT30;54931;52.098;21.006;2022-12-13T03:41:04;-0.08;80.93
68128;SHT30;54931;52.098;21.006;2022-12-13T03:43:36;-0.09;81.00
68128;SHT30;54931;52.098;21.006;2022-12-13T03:46:06;-0.10;81.11
68128;SHT30;54931;52.098;21.006;2022-12-13T03:48:35;-0.10;81.14
68128;SHT30;54931;52.098;21.006;2022-12-13T03:51:03;-0.09;81.12
68128;SHT30;54931;52.098;21.006;2022-12-13T03:53:31;-0.11;81.18
68128;SHT30;54931;52.098;21.006;2022-12-13T03:56:01;-0.10;81.11
68128;SHT30;54931;52.098;21.006;2022-12-13T03:58:31;-0.10;81.19
68128;SHT30;54931;52.098;21.006;2022-12-13T04:01:01;-0.09;81.30
68128;SHT30;54931;52.098;21.006;2022-12-13T04:03:28;-0.11;81.31
68128;SHT30;54931;52.098;21.006;2022-12-13T04:05:56;-0.11;81.35
68128;SHT30;54931;52.098;21.006;2022-12-13T04:08:24;-0.12;81.40
68128;SHT30;54931;52.098;21.006;2022-12-13T04:10:51;-0.10;81.33
68128;SHT30;54931;52.098;21.006;2022-12-13T04:13:19;-0.10;81.22
68128;SHT30;54931;52.098;21.006;2022-12-13T04:15:59;-0.06;81.18
68128;SHT30;54931;52.098;21.006;2022-12-13T04:18:28;-0.06;81.30
68128;SHT30;54931;52.098;21.006;2022-12-13T04:20:56;-0.06;81.29
68128;SHT30;54931;52.098;21.006;2022-12-13T04:23:24;-0.07;81.26
68128;SHT30;54931;52.098;21.006;2022-12-13T04:25:52;-0.07;81.25
68128;SHT30;54931;52.098;21.006;2022-12-13T04:28:19;-0.08;81.23
68128;SHT30;54931;52.098;21.006;2022-12-13T04:30:47;-0.09;81.30
68128;SHT30;54931;52.098;21.006;2022-12-13T04:33:15;-0.12;81.34
68128;SHT30;54931;52.098;21.006;2022-12-13T04:35:43;-0.13;81.30
68128;SHT30;54931;52.098;21.006;2022-12-13T04:38:10;-0.14;81.35
68128;SHT30;54931;52.098;21.006;2022-12-13T04:40:38;-0.12;81.29
68128;SHT30;54931;52.098;21.006;2022-12-13T04:43:06;-0.14;81.22
68128;SHT30;54931;52.098;21.006;2022-12-13T04:45:34;-0.15;81.27
68128;SHT30;54931;52.098;21.006;2022-12-13T04:48:02;-0.16;81.25
68128;SHT30;54931;52.098;21.006;2022-12-13T04:50:30;-0.19;81.00
68128;SHT30;54931;52.098;21.006;2022-12-13T04:52:59;-0.18;81.14
68128;SHT30;54931;52.098;21.006;2022-12-13T04:55:26;-0.23;81.11
68128;SHT30;54931;52.098;21.006;2022-12-13T04:57:54;-0.23;81.18
68128;SHT30;54931;52.098;21.006;2022-12-13T05:00:22;-0.25;81.03
68128;SHT30;54931;52.098;21.006;2022-12-13T05:02:49;-0.25;80.87
68128;SHT30;54931;52.098;21.006;2022-12-13T05:05:17;-0.30;80.81
68128;SHT30;54931;52.098;21.006;2022-12-13T05:07:46;-0.33;80.76
68128;SHT30;54931;52.098;21.006;2022-12-13T05:10:13;-0.34;80.73
68128;SHT30;54931;52.098;21.006;2022-12-13T05:12:41;-0.36;80.72
68128;SHT30;54931;52.098;21.006;2022-12-13T05:15:09;-0.37;80.83
68128;SHT30;54931;52.098;21.006;2022-12-13T05:17:37;-0.38;80.83
68128;SHT30;54931;52.098;21.006;2022-12-13T05:20:05;-0.40;80.68
68128;SHT30;54931;52.098;21.006;2022-12-13T05:22:33;-0.41;80.70
68128;SHT30;54931;52.098;21.006;2022-12-13T05:25:01;-0.43;80.67
68128;SHT30;54931;52.098;21.006;2022-12-13T05:27:29;-0.46;80.55
68128;SHT30;54931;52.098;21.006;2022-12-13T05:29:56;-0.47;80.28
68128;SHT30;54931;52.098;21.006;2022-12-13T05:32:24;-0.49;80.24
68128;SHT30;54931;52.098;21.006;2022-12-13T05:34:52;-0.49;80.28
68128;SHT30;54931;52.098;21.006;2022-12-13T05:37:20;-0.50;80.34
68128;SHT30;54931;52.098;21.006;2022-12-13T05:39:47;-0.52;80.48
68128;SHT30;54931;52.098;21.006;2022-12-13T05:42:15;-0.52;80.43
68128;SHT30;54931;52.098;21.006;2022-12-13T05:44:42;-0.53;80.57
68128;SHT30;54931;52.098;21.006;2022-12-13T05:47:10;-0.56;80.64
68128;SHT30;54931;52.098;21.006;2022-12-13T05:49:38;-0.59;80.58
68128;SHT30;54931;52.098;21.006;2022-12-13T05:52:13;-0.60;80.48
68128;SHT30;54931;52.098;21.006;2022-12-13T05:54:44;-0.63;80.50
68128;SHT30;54931;52.098;21.006;2022-12-13T05:57:12;-0.65;80.53
68128;SHT30;54931;52.098;21.006;2022-12-13T05:59:41;-0.67;80.49
68128;SHT30;54931;52.098;21.006;2022-12-13T06:02:08;-0.69;80.54
68128;SHT30;54931;52.098;21.006;2022-12-13T06:04:36;-0.72;80.25
68128;SHT30;54931;52.098;21.006;2022-12-13T06:07:03;-0.73;80.28
68128;SHT30;54931;52.098;21.006;2022-12-13T06:09:31;-0.78;80.11
68128;SHT30;54931;52.098;21.006;2022-12-13T06:11:59;-0.81;80.07
68128;SHT30;54931;52.098;21.006;2022-12-13T06:14:27;-0.84;80.16
68128;SHT30;54931;52.098;21.006;2022-12-13T06:16:55;-0.86;80.17
68128;SHT30;54931;52.098;21.006;2022-12-13T06:19:23;-0.89;79.93
68128;SHT30;54931;52.098;21.006;2022-12-13T06:21:51;-0.88;80.01
68128;SHT30;54931;52.098;21.006;2022-12-13T06:24:21;-0.90;80.12
68128;SHT30;54931;52.098;21.006;2022-12-13T06:26:50;-0.95;80.09
68128;SHT30;54931;52.098;21.006;2022-12-13T06:29:19;-0.96;80.10
68128;SHT30;54931;52.098;21.006;2022-12-13T06:31:55;-0.98;80.12
68128;SHT30;54931;52.098;21.006;2022-12-13T06:34:27;-0.99;80.09
68128;SHT30;54931;52.098;21.006;2022-12-13T06:36:57;-1.03;79.94
68128;SHT30;54931;52.098;21.006;2022-12-13T06:39:25;-1.04;79.88
68128;SHT30;54931;52.098;21.006;2022-12-13T06:41:53;-1.04;79.93
68128;SHT30;54931;52.098;21.006;2022-12-13T06:44:22;-1.07;80.02
68128;SHT30;54931;52.098;21.006;2022-12-13T06:46:50;-1.10;80.01
68128;SHT30;54931;52.098;21.006;2022-12-13T06:49:18;-1.11;79.92
68128;SHT30;54931;52.098;21.006;2022-12-13T06:51:46;-1.13;79.89
68128;SHT30;54931;52.098;21.006;2022-12-13T06:54:13;-1.14;79.94
68128;SHT30;54931;52.098;21.006;2022-12-13T06:56:41;-1.14;79.84
68128;SHT30;54931;52.098;21.006;2022-12-13T06:59:09;-1.16;79.56
68128;SHT30;54931;52.098;21.006;2022-12-13T07:01:39;-1.16;79.45
68128;SHT30;54931;52.098;21.006;2022-12-13T07:04:08;-1.19;79.27
68128;SHT30;54931;52.098;21.006;2022-12-13T07:06:38;-1.19;79.22
68128;SHT30;54931;52.098;21.006;2022-12-13T07:09:06;-1.22;79.00
68128;SHT30;54931;52.098;21.006;2022-12-13T07:11:34;-1.22;78.51
68128;SHT30;54931;52.098;21.006;2022-12-13T07:14:02;-1.22;78.53
68128;SHT30;54931;52.098;21.006;2022-12-13T07:16:29;-1.25;78.19
68128;SHT30;54931;52.098;21.006;2022-12-13T07:18:58;-1.23;78.37
68128;SHT30;54931;52.098;21.006;2022-12-13T07:21:28;-1.24;78.56
68128;SHT30;54931;52.098;21.006;2022-12-13T07:23:57;-1.25;78.07
68128;SHT30;54931;52.098;21.006;2022-12-13T07:26:25;-1.22;77.81
68128;SHT30;54931;52.098;21.006;2022-12-13T07:28:53;-1.19;77.97
68128;SHT30;54931;52.098;21.006;2022-12-13T07:31:22;-1.19;77.92
68128;SHT30;54931;52.098;21.006;2022-12-13T07:33:51;-1.19;77.82
68128;SHT30;54931;52.098;21.006;2022-12-13T07:36:19;-1.19;77.69
68128;SHT30;54931;52.098;21.006;2022-12-13T07:38:50;-1.17;77.78
68128;SHT30;54931;52.098;21.006;2022-12-13T07:41:21;-1.16;77.88
68128;SHT30;54931;52.098;21.006;2022-12-13T07:43:50;-1.13;78.16
68128;SHT30;54931;52.098;21.006;2022-12-13T07:46:20;-1.13;77.78
68128;SHT30;54931;52.098;21.006;2022-12-13T07:48:48;-1.09;77.75
68128;SHT30;54931;52.098;21.006;2022-12-13T07:51:16;-1.06;77.73
68128;SHT30;54931;52.098;21.006;2022-12-13T07:53:44;-1.05;77.38
68128;SHT30;54931;52.098;21.006;2022-12-13T07:56:12;-1.00;77.29
68128;SHT30;54931;52.098;21.006;2022-12-13T07:58:40;-0.95;77.39
68128;SHT30;54931;52.098;21.006;2022-12-13T08:01:09;-0.96;77.39
68128;SHT30;54931;52.098;21.006;2022-12-13T08:03:41;-0.96;77.71
68128;SHT30;54931;52.098;21.006;2022-12-13T08:06:09;-0.94;77.65
68128;SHT30;54931;52.098;21.006;2022-12-13T08:08:38;-0.93;77.63
68128;SHT30;54931;52.098;21.006;2022-12-13T08:11:07;-0.93;77.44
68128;SHT30;54931;52.098;21.006;2022-12-13T08:13:38;-0.96;77.52
68128;SHT30;54931;52.098;21.006;2022-12-13T08:16:08;-1.00;77.33
68128;SHT30;54931;52.098;21.006;2022-12-13T08:18:38;-0.99;77.42
68128;SHT30;54931;52.098;21.006;2022-12-13T08:21:06;-0.95;77.52
68128;SHT30;54931;52.098;21.006;2022-12-13T08:23:37;-0.92;77.59
68128;SHT30;54931;52.098;21.006;2022-12-13T08:26:05;-0.94;77.17
68128;SHT30;54931;52.098;21.006;2022-12-13T08:28:33;-0.99;76.95
68128;SHT30;54931;52.098;21.006;2022-12-13T08:31:04;-0.98;77.12
68128;SHT30;54931;52.098;21.006;2022-12-13T08:33:40;-0.96;77.06
68128;SHT30;54931;52.098;21.006;2022-12-13T08:36:10;-0.98;77.12
68128;SHT30;54931;52.098;21.006;2022-12-13T08:38:44;-1.02;77.09
68128;SHT30;54931;52.098;21.006;2022-12-13T08:41:12;-0.94;77.30
68128;SHT30;54931;52.098;21.006;2022-12-13T08:43:40;-0.94;77.27
68128;SHT30;54931;52.098;21.006;2022-12-13T08:46:08;-0.96;77.38
68128;SHT30;54931;52.098;21.006;2022-12-13T08:48:35;-0.93;77.35
68128;SHT30;54931;52.098;21.006;2022-12-13T08:51:04;-0.92;77.10
68128;SHT30;54931;52.098;21.006;2022-12-13T08:53:35;-0.94;76.82
68128;SHT30;54931;52.098;21.006;2022-12-13T08:56:04;-0.94;76.99
68128;SHT30;54931;52.098;21.006;2022-12-13T08:58:37;-0.88;76.32
68128;SHT30;54931;52.098;21.006;2022-12-13T09:01:06;-0.81;76.00
68128;SHT30;54931;52.098;21.006;2022-12-13T09:03:36;-0.85;75.62
68128;SHT30;54931;52.098;21.006;2022-12-13T09:06:05;-0.84;75.90
68128;SHT30;54931;52.098;21.006;2022-12-13T09:08:39;-0.77;75.77
68128;SHT30;54931;52.098;21.006;2022-12-13T09:11:10;-0.75;75.97
68128;SHT30;54931;52.098;21.006;2022-12-13T09:13:39;-0.84;75.10
68128;SHT30;54931;52.098;21.006;2022-12-13T09:16:09;-0.82;75.60
68128;SHT30;54931;52.098;21.006;2022-12-13T09:18:48;-0.79;75.92
68128;SHT30;54931;52.098;21.006;2022-12-13T09:21:18;-0.82;75.77
68128;SHT30;54931;52.098;21.006;2022-12-13T09:23:46;-0.87;75.78
68128;SHT30;54931;52.098;21.006;2022-12-13T09:26:14;-0.87;75.77
68128;SHT30;54931;52.098;21.006;2022-12-13T09:28:42;-0.82;75.90
68128;SHT30;54931;52.098;21.006;2022-12-13T09:31:14;-0.81;75.98
68128;SHT30;54931;52.098;21.006;2022-12-13T09:33:45;-0.84;75.72
68128;SHT30;54931;52.098;21.006;2022-12-13T09:36:15;-0.83;75.47
68128;SHT30;54931;52.098;21.006;2022-12-13T09:38:46;-0.81;75.64
68128;SHT30;54931;52.098;21.006;2022-12-13T09:41:19;-0.88;75.22
68128;SHT30;54931;52.098;21.006;2022-12-13T09:43:54;-0.91;75.28
68128;SHT30;54931;52.098;21.006;2022-12-13T09:46:31;-0.91;74.95
68128;SHT30;54931;52.098;21.006;2022-12-13T09:49:08;-0.90;74.79
68128;SHT30;54931;52.098;21.006;2022-12-13T09:51:44;-0.90;75.05
68128;SHT30;54931;52.098;21.006;2022-12-13T09:54:21;-0.89;75.13
68128;SHT30;54931;52.098;21.006;2022-12-13T09:56:51;-0.88;74.97
68128;SHT30;54931;52.098;21.006;2022-12-13T09:59:27;-0.92;74.41
68128;SHT30;54931;52.098;21.006;2022-12-13T10:02:02;-0.94;74.96
68128;SHT30;54931;52.098;21.006;2022-12-13T10:08:13;-0.90;74.67
68128;SHT30;54931;52.098;21.006;2022-12-13T10:10:49;-0.90;74.66
68128;SHT30;54931;52.098;21.006;2022-12-13T10:16:01;-0.86;74.55
68128;SHT30;54931;52.098;21.006;2022-12-13T10:18:39;-0.86;74.83
68128;SHT30;54931;52.098;21.006;2022-12-13T10:21:30;-0.82;74.86
68128;SHT30;54931;52.098;21.006;2022-12-13T10:24:20;-0.71;75.21
68128;SHT30;54931;52.098;21.006;2022-12-13T10:26:57;-0.67;74.84
68128;SHT30;54931;52.098;21.006;2022-12-13T10:30:00;-0.72;74.54
68128;SHT30;54931;52.098;21.006;2022-12-13T10:32:57;-0.73;74.85
68128;SHT30;54931;52.098;21.006;2022-12-13T10:35:28;-0.70;75.10
68128;SHT30;54931;52.098;21.006;2022-12-13T10:40:35;-0.69;75.07
68128;SHT30;54931;52.098;21.006;2022-12-13T10:43:12;-0.76;75.07
68128;SHT30;54931;52.098;21.006;2022-12-13T10:45:55;-0.73;75.26
68128;SHT30;54931;52.098;21.006;2022-12-13T10:51:23;-0.58;75.57
68128;SHT30;54931;52.098;21.006;2022-12-13T10:53:58;-0.51;75.39
68128;SHT30;54931;52.098;21.006;2022-12-13T10:56:38;-0.43;74.81
68128;SHT30;54931;52.098;21.006;2022-12-13T11:01:48;-0.32;74.67
68128;SHT30;54931;52.098;21.006;2022-12-13T11:07:00;-0.15;75.09
68128;SHT30;54931;52.098;21.006;2022-12-13T11:10:15;-0.10;74.85
68128;SHT30;54931;52.098;21.006;2022-12-13T11:12:58;-0.16;74.73
68128;SHT30;54931;52.098;21.006;2022-12-13T11:15:30;-0.20;74.85
68128;SHT30;54931;52.098;21.006;2022-12-13T11:18:24;-0.20;74.67
68128;SHT30;54931;52.098;21.006;2022-12-13T11:20:54;-0.23;74.53
68128;SHT30;54931;52.098;21.006;2022-12-13T11:23:30;-0.33;74.60
68128;SHT30;54931;52.098;21.006;2022-12-13T11:26:10;-0.41;75.14
68128;SHT30;54931;52.098;21.006;2022-12-13T11:35:29;-0.42;75.11
68128;SHT30;54931;52.098;21.006;2022-12-13T11:41:21;-0.41;75.53
68128;SHT30;54931;52.098;21.006;2022-12-13T11:46:50;-0.41;75.43
68128;SHT30;54931;52.098;21.006;2022-12-13T11:49:28;-0.45;75.54
68128;SHT30;54931;52.098;21.006;2022-12-13T11:52:10;-0.48;75.30
68128;SHT30;54931;52.098;21.006;2022-12-13T11:55:00;-0.47;75.36
68128;SHT30;54931;52.098;21.006;2022-12-13T11:57:38;-0.55;75.54
68128;SHT30;54931;52.098;21.006;2022-12-13T12:03:19;-0.69;76.49
68128;SHT30;54931;52.098;21.006;2022-12-13T12:06:12;-0.75;77.03
68128;SHT30;54931;52.098;21.006;2022-12-13T12:11:27;-0.86;76.44
68128;SHT30;54931;52.098;21.006;2022-12-13T12:16:47;-0.83;77.03
68128;SHT30;54931;52.098;21.006;2022-12-13T12:19:26;-0.74;76.59
68128;SHT30;54931;52.098;21.006;2022-12-13T12:25:05;-0.73;76.14
68128;SHT30;54931;52.098;21.006;2022-12-13T12:31:10;-0.98;75.68
68128;SHT30;54931;52.098;21.006;2022-12-13T12:43:39;-1.27;76.03
68128;SHT30;54931;52.098;21.006;2022-12-13T12:48:50;-1.41;76.32
68128;SHT30;54931;52.098;21.006;2022-12-13T12:52:00;-1.43;76.16
68128;SHT30;54931;52.098;21.006;2022-12-13T13:03:40;-1.67;76.57
68128;SHT30;54931;52.098;21.006;2022-12-13T13:06:21;-1.70;76.52
68128;SHT30;54931;52.098;21.006;2022-12-13T13:11:35;-1.85;76.77
68128;SHT30;54931;52.098;21.006;2022-12-13T13:14:25;-1.89;76.76
68128;SHT30;54931;52.098;21.006;2022-12-13T13:17:43;-1.90;76.82
68128;SHT30;54931;52.098;21.006;2022-12-13T13:19:53;-1.95;77.08
68128;SHT30;54931;52.098;21.006;2022-12-13T13:22:44;-1.92;77.20
68128;SHT30;54931;52.098;21.006;2022-12-13T13:25:24;-1.84;77.19
68128;SHT30;54931;52.098;21.006;2022-12-13T13:28:03;-1.75;77.10
68128;SHT30;54931;52.098;21.006;2022-12-13T13:33:57;-1.70;77.30
68128;SHT30;54931;52.098;21.006;2022-12-13T13:39:14;-1.65;77.36
68128;SHT30;54931;52.098;21.006;2022-12-13T14:08:01;-2.42;78.40
68128;SHT30;54931;52.098;21.006;2022-12-13T14:26:21;-3.02;79.24
68128;SHT30;54931;52.098;21.006;2022-12-13T14:29:03;-3.10;79.38
68128;SHT30;54931;52.098;21.006;2022-12-13T14:31:44;-3.20;79.41
68128;SHT30;54931;52.098;21.006;2022-12-13T14:34:22;-3.27;79.66
68128;SHT30;54931;52.098;21.006;2022-12-13T14:39:48;-3.47;79.77
68128;SHT30;54931;52.098;21.006;2022-12-13T14:45:13;-3.46;79.73
68128;SHT30;54931;52.098;21.006;2022-12-13T14:47:51;-3.52;79.63
68128;SHT30;54931;52.098;21.006;2022-12-13T14:50:20;-3.64;79.80
68128;SHT30;54931;52.098;21.006;2022-12-13T14:52:52;-3.78;80.03
68128;SHT30;54931;52.098;21.006;2022-12-13T14:55:29;-3.91;80.34
68128;SHT30;54931;52.098;21.006;2022-12-13T14:58:03;-3.99;80.56
68128;SHT30;54931;52.098;21.006;2022-12-13T15:00:43;-4.02;80.60
68128;SHT30;54931;52.098;21.006;2022-12-13T15:03:22;-4.01;80.56
68128;SHT30;54931;52.098;21.006;2022-12-13T15:05:56;-3.98;80.58
68128;SHT30;54931;52.098;21.006;2022-12-13T15:08:27;-3.98;80.72
68128;SHT30;54931;52.098;21.006;2022-12-13T15:11:03;-4.02;80.97
68128;SHT30;54931;52.098;21.006;2022-12-13T15:13:40;-4.03;81.30
68128;SHT30;54931;52.098;21.006;2022-12-13T15:16:22;-4.06;81.59
68128;SHT30;54931;52.098;21.006;2022-12-13T15:21:58;-4.03;82.13
68128;SHT30;54931;52.098;21.006;2022-12-13T15:24:32;-3.99;82.37
68128;SHT30;54931;52.098;21.006;2022-12-13T15:27:06;-3.88;82.39
68128;SHT30;54931;52.098;21.006;2022-12-13T15:29:35;-3.74;82.11
68128;SHT30;54931;52.098;21.006;2022-12-13T15:32:03;-3.61;81.81
68128;SHT30;54931;52.098;21.006;2022-12-13T15:34:45;-3.49;81.61
68128;SHT30;54931;52.098;21.006;2022-12-13T15:37:19;-3.39;81.45
68128;SHT30;54931;52.098;21.006;2022-12-13T15:39:59;-3.36;81.30
68128;SHT30;54931;52.098;21.006;2022-12-13T15:42:37;-3.41;81.27
68128;SHT30;54931;52.098;21.006;2022-12-13T15:45:18;-3.46;81.38
68128;SHT30;54931;52.098;21.006;2022-12-13T15:47:51;-3.52;81.51
68128;SHT30;54931;52.098;21.006;2022-12-13T15:50:38;-3.60;81.61
68128;SHT30;54931;52.098;21.006;2022-12-13T15:53:21;-3.69;81.69
68128;SHT30;54931;52.098;21.006;2022-12-13T15:55:53;-3.81;81.90
68128;SHT30;54931;52.098;21.006;2022-12-13T15:58:39;-3.87;81.97
68128;SHT30;54931;52.098;21.006;2022-12-13T16:01:21;-3.88;81.89
68128;SHT30;54931;52.098;21.006;2022-12-13T16:03:55;-3.87;81.91
68128;SHT30;54931;52.098;21.006;2022-12-13T16:06:24;-3.84;81.90
68128;SHT30;54931;52.098;21.006;2022-12-13T16:08:56;-3.81;81.94
68128;SHT30;54931;52.098;21.006;2022-12-13T16:11:29;-3.83;81.91
68128;SHT30;54931;52.098;21.006;2022-12-13T16:17:18;-3.92;82.29
68128;SHT30;54931;52.098;21.006;2022-12-13T16:19:53;-3.99;82.47
68128;SHT30;54931;52.098;21.006;2022-12-13T16:22:24;-4.04;82.66
68128;SHT30;54931;52.098;21.006;2022-12-13T16:24:52;-4.01;82.65
68128;SHT30;54931;52.098;21.006;2022-12-13T16:27:22;-3.93;82.53
68128;SHT30;54931;52.098;21.006;2022-12-13T16:29:50;-3.86;82.37
68128;SHT30;54931;52.098;21.006;2022-12-13T16:32:18;-3.81;82.27
68128;SHT30;54931;52.098;21.006;2022-12-13T16:34:46;-3.80;82.37
68128;SHT30;54931;52.098;21.006;2022-12-13T16:37:14;-3.80;82.56
68128;SHT30;54931;52.098;21.006;2022-12-13T16:39:43;-3.81;82.64
68128;SHT30;54931;52.098;21.006;2022-12-13T16:42:11;-3.84;82.82
68128;SHT30;54931;52.098;21.006;2022-12-13T16:44:39;-3.83;82.84
68128;SHT30;54931;52.098;21.006;2022-12-13T16:47:10;-3.76;82.73
68128;SHT30;54931;52.098;21.006;2022-12-13T16:49:39;-3.64;82.58
68128;SHT30;54931;52.098;21.006;2022-12-13T16:52:08;-3.53;82.49
68128;SHT30;54931;52.098;21.006;2022-12-13T16:54:36;-3.46;82.43
68128;SHT30;54931;52.098;21.006;2022-12-13T16:57:04;-3.44;82.45
68128;SHT30;54931;52.098;21.006;2022-12-13T16:59:32;-3.45;82.51
68128;SHT30;54931;52.098;21.006;2022-12-13T17:02:00;-3.46;82.60
68128;SHT30;54931;52.098;21.006;2022-12-13T17:04:28;-3.45;82.50
68128;SHT30;54931;52.098;21.006;2022-12-13T17:06:55;-3.40;82.49
68128;SHT30;54931;52.098;21.006;2022-12-13T17:09:24;-3.32;82.36
68128;SHT30;54931;52.098;21.006;2022-12-13T17:11:51;-3.24;82.20
68128;SHT30;54931;52.098;21.006;2022-12-13T17:14:19;-3.19;82.09
68128;SHT30;54931;52.098;21.006;2022-12-13T17:16:47;-3.16;82.03
68128;SHT30;54931;52.098;21.006;2022-12-13T17:19:15;-3.16;81.98
68128;SHT30;54931;52.098;21.006;2022-12-13T17:21:43;-3.14;81.87
68128;SHT30;54931;52.098;21.006;2022-12-13T17:24:11;-3.10;81.78
68128;SHT30;54931;52.098;21.006;2022-12-13T17:26:38;-3.05;81.66
68128;SHT30;54931;52.098;21.006;2022-12-13T17:29:07;-3.02;81.54
68128;SHT30;54931;52.098;21.006;2022-12-13T17:31:36;-3.00;81.50
68128;SHT30;54931;52.098;21.006;2022-12-13T17:34:05;-3.02;81.49
68128;SHT30;54931;52.098;21.006;2022-12-13T17:36:32;-3.06;81.50
68128;SHT30;54931;52.098;21.006;2022-12-13T17:39:01;-3.05;81.48
68128;SHT30;54931;52.098;21.006;2022-12-13T17:41:29;-3.02;81.40
68128;SHT30;54931;52.098;21.006;2022-12-13T17:43:57;-2.98;81.32
68128;SHT30;54931;52.098;21.006;2022-12-13T17:46:27;-2.95;81.22
68128;SHT30;54931;52.098;21.006;2022-12-13T17:48:55;-2.97;81.20
68128;SHT30;54931;52.098;21.006;2022-12-13T17:51:23;-3.02;81.27
68128;SHT30;54931;52.098;21.006;2022-12-13T17:53:51;-3.03;81.27
68128;SHT30;54931;52.098;21.006;2022-12-13T17:56:18;-3.02;81.21
68128;SHT30;54931;52.098;21.006;2022-12-13T17:58:46;-3.00;81.12
68128;SHT30;54931;52.098;21.006;2022-12-13T18:01:21;-3.02;81.16
68128;SHT30;54931;52.098;21.006;2022-12-13T18:03:52;-3.06;81.26
68128;SHT30;54931;52.098;21.006;2022-12-13T18:06:23;-3.06;81.27
68128;SHT30;54931;52.098;21.006;2022-12-13T18:08:52;-3.04;81.20
68128;SHT30;54931;52.098;21.006;2022-12-13T18:11:20;-3.05;81.16
68128;SHT30;54931;52.098;21.006;2022-12-13T18:13:48;-3.04;81.10
68128;SHT30;54931;52.098;21.006;2022-12-13T18:16:16;-3.07;81.11
68128;SHT30;54931;52.098;21.006;2022-12-13T18:18:45;-3.15;81.26
68128;SHT30;54931;52.098;21.006;2022-12-13T18:21:14;-3.19;81.26
68128;SHT30;54931;52.098;21.006;2022-12-13T18:23:44;-3.21;81.29
68128;SHT30;54931;52.098;21.006;2022-12-13T18:26:13;-3.22;81.32